sensor_id;sensor_type;location;lat;lon;timestamp;P1;durP1;ratioP1;P2;durP2;ratioP2
63350;SDS011;74263;51.058;17.040;2024-03-02T00:02:06;129.37;;;65.47;;
63350;SDS011;74263;51.058;17.040;2024-03-02T00:07:08;120.57;;;66.20;;
63350;SDS011;74263;51.058;17.040;2024-03-02T00:12:11;130.35;;;66.35;;
63350;SDS011;74263;51.058;17.040;2024-03-02T00:17:17;131.48;;;66.50;;
63350;SDS011;74263;51.058;17.040;2024-03-02T00:22:22;130.35;;;67.15;;
63350;SDS011;74263;51.058;17.040;2024-03-02T00:27:24;121.43;;;66.63;;
63350;SDS011;74263;51.058;17.040;2024-03-02T00:32:26;122.47;;;65.05;;
63350;SDS011;74263;51.058;17.040;2024-03-02T00:37:27;129.45;;;67.60;;
63350;SDS011;74263;51.058;17.040;2024-03-02T00:47:32;122.30;;;65.13;;
63350;SDS011;74263;51.058;17.040;2024-03-02T00:52:33;126.90;;;70.18;;
63350;SDS011;74263;51.058;17.040;2024-03-02T00:57:35;129.30;;;69.17;;
63350;SDS011;74263;51.058;17.040;2024-03-02T01:02:37;129.70;;;70.68;;
63350;SDS011;74263;51.058;17.040;2024-03-02T01:07:39;121.00;;;68.30;;
63350;SDS011;74263;51.058;17.040;2024-03-02T01:12:41;122.23;;;68.37;;
63350;SDS011;74263;51.058;17.040;2024-03-02T01:17:43;133.17;;;69.17;;
63350;SDS011;74263;51.058;17.040;2024-03-02T01:22:44;125.93;;;67.45;;
63350;SDS011;74263;51.058;17.040;2024-03-02T01:27:46;126.07;;;69.57;;
63350;SDS011;74263;51.058;17.040;2024-03-02T01:32:51;127.95;;;68.65;;
63350;SDS011;74263;51.058;17.040;2024-03-02T01:37:53;120.80;;;64.50;;
63350;SDS011;74263;51.058;17.040;2024-03-02T01:42:55;122.68;;;66.63;;
63350;SDS011;74263;51.058;17.040;2024-03-02T01:47:56;125.25;;;67.22;;
63350;SDS011;74263;51.058;17.040;2024-03-02T01:52:59;126.22;;;66.78;;
63350;SDS011;74263;51.058;17.040;2024-03-02T01:58:01;130.15;;;67.35;;
63350;SDS011;74263;51.058;17.040;2024-03-02T02:03:03;127.43;;;67.53;;
63350;SDS011;74263;51.058;17.040;2024-03-02T02:08:04;127.78;;;66.90;;
63350;SDS011;74263;51.058;17.040;2024-03-02T02:13:06;128.20;;;65.37;;
63350;SDS011;74263;51.058;17.040;2024-03-02T02:18:08;131.20;;;67.68;;
63350;SDS011;74263;51.058;17.040;2024-03-02T02:23:10;133.50;;;68.53;;
63350;SDS011;74263;51.058;17.040;2024-03-02T02:28:11;126.88;;;67.68;;
63350;SDS011;74263;51.058;17.040;2024-03-02T02:33:13;123.55;;;64.63;;
63350;SDS011;74263;51.058;17.040;2024-03-02T02:38:15;128.10;;;66.00;;
63350;SDS011;74263;51.058;17.040;2024-03-02T02:43:17;125.57;;;66.28;;
63350;SDS011;74263;51.058;17.040;2024-03-02T02:48:19;127.18;;;65.47;;
63350;SDS011;74263;51.058;17.040;2024-03-02T02:53:20;129.75;;;63.80;;
63350;SDS011;74263;51.058;17.040;2024-03-02T02:58:22;123.85;;;64.20;;
63350;SDS011;74263;51.058;17.040;2024-03-02T03:03:24;124.17;;;65.53;;
63350;SDS011;74263;51.058;17.040;2024-03-02T03:08:26;122.32;;;64.22;;
63350;SDS011;74263;51.058;17.040;2024-03-02T03:13:27;129.07;;;65.72;;
63350;SDS011;74263;51.058;17.040;2024-03-02T03:18:29;126.15;;;63.58;;
63350;SDS011;74263;51.058;17.040;2024-03-02T03:23:31;130.70;;;64.17;;
63350;SDS011;74263;51.058;17.040;2024-03-02T03:28:33;124.90;;;64.50;;
63350;SDS011;74263;51.058;17.040;2024-03-02T03:33:35;121.57;;;60.93;;
63350;SDS011;74263;51.058;17.040;2024-03-02T03:38:37;125.97;;;65.40;;
63350;SDS011;74263;51.058;17.040;2024-03-02T03:43:38;127.97;;;63.55;;
63350;SDS011;74263;51.058;17.040;2024-03-02T03:48:40;129.38;;;65.47;;
63350;SDS011;74263;51.058;17.040;2024-03-02T03:53:42;123.75;;;63.92;;
63350;SDS011;74263;51.058;17.040;2024-03-02T03:58:44;127.93;;;63.08;;
63350;SDS011;74263;51.058;17.040;2024-03-02T04:03:45;124.55;;;64.95;;
63350;SDS011;74263;51.058;17.040;2024-03-02T04:08:47;124.22;;;64.50;;
63350;SDS011;74263;51.058;17.040;2024-03-02T04:13:49;117.27;;;60.40;;
63350;SDS011;74263;51.058;17.040;2024-03-02T04:18:51;111.78;;;57.25;;
63350;SDS011;74263;51.058;17.040;2024-03-02T04:23:53;118.53;;;59.80;;
63350;SDS011;74263;51.058;17.040;2024-03-02T04:28:55;114.05;;;58.30;;
63350;SDS011;74263;51.058;17.040;2024-03-02T04:33:56;110.40;;;56.13;;
63350;SDS011;74263;51.058;17.040;2024-03-02T04:38:58;109.75;;;58.17;;
63350;SDS011;74263;51.058;17.040;2024-03-02T04:44:00;107.63;;;53.50;;
63350;SDS011;74263;51.058;17.040;2024-03-02T04:49:02;106.72;;;55.17;;
63350;SDS011;74263;51.058;17.040;2024-03-02T04:54:03;105.28;;;54.10;;
63350;SDS011;74263;51.058;17.040;2024-03-02T04:59:05;111.50;;;58.30;;
63350;SDS011;74263;51.058;17.040;2024-03-02T05:04:07;110.97;;;58.57;;
63350;SDS011;74263;51.058;17.040;2024-03-02T05:09:09;104.73;;;56.30;;
63350;SDS011;74263;51.058;17.040;2024-03-02T05:14:11;112.72;;;56.22;;
63350;SDS011;74263;51.058;17.040;2024-03-02T05:19:13;107.32;;;58.38;;
63350;SDS011;74263;51.058;17.040;2024-03-02T05:24:14;103.50;;;56.15;;
63350;SDS011;74263;51.058;17.040;2024-03-02T05:29:16;102.32;;;53.38;;
63350;SDS011;74263;51.058;17.040;2024-03-02T05:34:18;105.90;;;54.58;;
63350;SDS011;74263;51.058;17.040;2024-03-02T05:39:20;112.87;;;53.50;;
63350;SDS011;74263;51.058;17.040;2024-03-02T05:44:22;104.53;;;53.43;;
63350;SDS011;74263;51.058;17.040;2024-03-02T05:49:24;105.47;;;52.07;;
63350;SDS011;74263;51.058;17.040;2024-03-02T05:54:25;96.75;;;50.88;;
63350;SDS011;74263;51.058;17.040;2024-03-02T05:59:30;101.35;;;51.20;;
63350;SDS011;74263;51.058;17.040;2024-03-02T06:04:32;102.68;;;51.67;;
63350;SDS011;74263;51.058;17.040;2024-03-02T06:09:34;100.30;;;52.05;;
63350;SDS011;74263;51.058;17.040;2024-03-02T06:14:35;107.27;;;54.50;;
63350;SDS011;74263;51.058;17.040;2024-03-02T06:19:37;97.93;;;50.50;;
63350;SDS011;74263;51.058;17.040;2024-03-02T06:24:39;100.90;;;51.42;;
63350;SDS011;74263;51.058;17.040;2024-03-02T06:29:41;98.40;;;50.58;;
63350;SDS011;74263;51.058;17.040;2024-03-02T06:34:43;96.83;;;51.10;;
63350;SDS011;74263;51.058;17.040;2024-03-02T06:39:44;104.18;;;52.38;;
63350;SDS011;74263;51.058;17.040;2024-03-02T06:44:46;106.37;;;53.50;;
63350;SDS011;74263;51.058;17.040;2024-03-02T06:49:48;107.88;;;54.63;;
63350;SDS011;74263;51.058;17.040;2024-03-02T06:54:50;105.38;;;53.33;;
63350;SDS011;74263;51.058;17.040;2024-03-02T06:59:51;109.18;;;54.42;;
63350;SDS011;74263;51.058;17.040;2024-03-02T07:04:53;104.18;;;54.75;;
63350;SDS011;74263;51.058;17.040;2024-03-02T07:09:55;107.87;;;53.40;;
63350;SDS011;74263;51.058;17.040;2024-03-02T07:14:57;111.15;;;57.47;;
63350;SDS011;74263;51.058;17.040;2024-03-02T07:19:58;125.28;;;64.25;;
63350;SDS011;74263;51.058;17.040;2024-03-02T07:25:00;139.88;;;67.20;;
63350;SDS011;74263;51.058;17.040;2024-03-02T07:30:03;134.37;;;67.40;;
63350;SDS011;74263;51.058;17.040;2024-03-02T07:35:05;131.65;;;67.78;;
63350;SDS011;74263;51.058;17.040;2024-03-02T07:40:07;116.67;;;59.40;;
63350;SDS011;74263;51.058;17.040;2024-03-02T07:45:09;115.90;;;59.60;;
63350;SDS011;74263;51.058;17.040;2024-03-02T07:50:11;123.23;;;62.97;;
63350;SDS011;74263;51.058;17.040;2024-03-02T07:55:12;109.00;;;55.35;;
63350;SDS011;74263;51.058;17.040;2024-03-02T08:00:14;108.22;;;55.45;;
63350;SDS011;74263;51.058;17.040;2024-03-02T08:05:16;99.82;;;51.80;;
63350;SDS011;74263;51.058;17.040;2024-03-02T08:10:18;95.70;;;51.37;;
63350;SDS011;74263;51.058;17.040;2024-03-02T08:15:19;98.15;;;50.97;;
63350;SDS011;74263;51.058;17.040;2024-03-02T08:20:21;97.05;;;50.58;;
63350;SDS011;74263;51.058;17.040;2024-03-02T08:25:23;96.60;;;49.00;;
63350;SDS011;74263;51.058;17.040;2024-03-02T08:30:25;102.00;;;51.43;;
63350;SDS011;74263;51.058;17.040;2024-03-02T08:35:27;90.82;;;50.28;;
63350;SDS011;74263;51.058;17.040;2024-03-02T08:40:29;91.50;;;49.42;;
63350;SDS011;74263;51.058;17.040;2024-03-02T08:45:30;88.30;;;47.72;;
63350;SDS011;74263;51.058;17.040;2024-03-02T08:50:32;84.07;;;46.23;;
63350;SDS011;74263;51.058;17.040;2024-03-02T08:55:34;84.72;;;45.55;;
63350;SDS011;74263;51.058;17.040;2024-03-02T09:00:36;84.93;;;47.33;;
63350;SDS011;74263;51.058;17.040;2024-03-02T09:05:38;81.88;;;43.30;;
63350;SDS011;74263;51.058;17.040;2024-03-02T09:10:40;78.27;;;42.83;;
63350;SDS011;74263;51.058;17.040;2024-03-02T09:15:42;82.38;;;42.58;;
63350;SDS011;74263;51.058;17.040;2024-03-02T09:20:43;76.50;;;42.63;;
63350;SDS011;74263;51.058;17.040;2024-03-02T09:25:45;76.43;;;39.95;;
63350;SDS011;74263;51.058;17.040;2024-03-02T09:30:47;72.57;;;40.35;;
63350;SDS011;74263;51.058;17.040;2024-03-02T09:35:48;78.82;;;42.03;;
63350;SDS011;74263;51.058;17.040;2024-03-02T09:40:52;73.35;;;40.90;;
63350;SDS011;74263;51.058;17.040;2024-03-02T09:45:53;70.25;;;39.88;;
63350;SDS011;74263;51.058;17.040;2024-03-02T09:50:55;72.80;;;38.13;;
63350;SDS011;74263;51.058;17.040;2024-03-02T09:55:58;76.20;;;39.90;;
63350;SDS011;74263;51.058;17.040;2024-03-02T10:06:20;71.53;;;37.83;;
63350;SDS011;74263;51.058;17.040;2024-03-02T10:11:32;67.60;;;38.22;;
63350;SDS011;74263;51.058;17.040;2024-03-02T10:16:36;62.13;;;35.13;;
63350;SDS011;74263;51.058;17.040;2024-03-02T10:21:39;66.57;;;36.78;;
63350;SDS011;74263;51.058;17.040;2024-03-02T10:26:41;61.72;;;32.17;;
63350;SDS011;74263;51.058;17.040;2024-03-02T10:31:44;55.57;;;31.23;;
63350;SDS011;74263;51.058;17.040;2024-03-02T10:36:46;55.03;;;30.77;;
63350;SDS011;74263;51.058;17.040;2024-03-02T10:41:49;58.28;;;32.58;;
63350;SDS011;74263;51.058;17.040;2024-03-02T10:46:51;65.53;;;32.67;;
63350;SDS011;74263;51.058;17.040;2024-03-02T10:51:54;59.10;;;33.45;;
63350;SDS011;74263;51.058;17.040;2024-03-02T10:56:58;56.63;;;30.43;;
63350;SDS011;74263;51.058;17.040;2024-03-02T11:02:01;53.20;;;29.95;;
63350;SDS011;74263;51.058;17.040;2024-03-02T11:07:07;51.88;;;27.65;;
63350;SDS011;74263;51.058;17.040;2024-03-02T11:12:12;54.47;;;30.60;;
63350;SDS011;74263;51.058;17.040;2024-03-02T11:17:14;51.60;;;29.73;;
63350;SDS011;74263;51.058;17.040;2024-03-02T11:22:16;50.00;;;27.67;;
63350;SDS011;74263;51.058;17.040;2024-03-02T11:32:39;49.05;;;27.55;;
63350;SDS011;74263;51.058;17.040;2024-03-02T11:37:41;48.58;;;27.55;;
63350;SDS011;74263;51.058;17.040;2024-03-02T11:42:42;48.33;;;27.33;;
63350;SDS011;74263;51.058;17.040;2024-03-02T11:47:51;48.37;;;26.73;;
63350;SDS011;74263;51.058;17.040;2024-03-02T11:52:54;51.95;;;28.10;;
63350;SDS011;74263;51.058;17.040;2024-03-02T11:57:56;41.10;;;24.63;;
63350;SDS011;74263;51.058;17.040;2024-03-02T12:08:02;40.50;;;22.92;;
63350;SDS011;74263;51.058;17.040;2024-03-02T12:13:05;44.47;;;24.77;;
63350;SDS011;74263;51.058;17.040;2024-03-02T12:18:07;42.45;;;24.35;;
63350;SDS011;74263;51.058;17.040;2024-03-02T12:23:09;45.80;;;24.90;;
63350;SDS011;74263;51.058;17.040;2024-03-02T12:28:11;42.78;;;24.73;;
63350;SDS011;74263;51.058;17.040;2024-03-02T12:33:12;47.30;;;26.60;;
63350;SDS011;74263;51.058;17.040;2024-03-02T12:38:14;51.20;;;27.20;;
63350;SDS011;74263;51.058;17.040;2024-03-02T12:43:16;38.67;;;21.03;;
63350;SDS011;74263;51.058;17.040;2024-03-02T12:48:19;42.60;;;24.27;;
63350;SDS011;74263;51.058;17.040;2024-03-02T12:53:21;49.60;;;25.13;;
63350;SDS011;74263;51.058;17.040;2024-03-02T12:58:23;45.75;;;23.63;;
63350;SDS011;74263;51.058;17.040;2024-03-02T13:03:25;38.25;;;22.88;;
63350;SDS011;74263;51.058;17.040;2024-03-02T13:08:27;38.03;;;23.20;;
63350;SDS011;74263;51.058;17.040;2024-03-02T13:13:32;46.53;;;25.00;;
63350;SDS011;74263;51.058;17.040;2024-03-02T13:18:34;43.58;;;22.63;;
63350;SDS011;74263;51.058;17.040;2024-03-02T13:23:36;33.47;;;21.00;;
63350;SDS011;74263;51.058;17.040;2024-03-02T13:28:38;41.40;;;24.77;;
63350;SDS011;74263;51.058;17.040;2024-03-02T13:33:39;46.77;;;24.43;;
63350;SDS011;74263;51.058;17.040;2024-03-02T13:38:41;37.03;;;22.27;;
63350;SDS011;74263;51.058;17.040;2024-03-02T13:43:43;40.30;;;23.27;;
63350;SDS011;74263;51.058;17.040;2024-03-02T13:48:45;37.43;;;20.77;;
63350;SDS011;74263;51.058;17.040;2024-03-02T13:53:47;38.65;;;21.50;;
63350;SDS011;74263;51.058;17.040;2024-03-02T13:58:48;42.37;;;22.87;;
63350;SDS011;74263;51.058;17.040;2024-03-02T14:03:50;39.30;;;21.42;;
63350;SDS011;74263;51.058;17.040;2024-03-02T14:08:52;42.27;;;23.70;;
63350;SDS011;74263;51.058;17.040;2024-03-02T14:13:54;38.97;;;23.20;;
63350;SDS011;74263;51.058;17.040;2024-03-02T14:18:56;41.97;;;23.13;;
63350;SDS011;74263;51.058;17.040;2024-03-02T14:23:58;44.23;;;25.07;;
63350;SDS011;74263;51.058;17.040;2024-03-02T14:28:59;38.78;;;23.63;;
63350;SDS011;74263;51.058;17.040;2024-03-02T14:34:02;45.13;;;25.30;;
63350;SDS011;74263;51.058;17.040;2024-03-02T14:39:05;42.72;;;25.55;;
63350;SDS011;74263;51.058;17.040;2024-03-02T14:44:07;46.77;;;24.57;;
63350;SDS011;74263;51.058;17.040;2024-03-02T14:49:09;41.90;;;25.20;;
63350;SDS011;74263;51.058;17.040;2024-03-02T14:54:10;40.27;;;26.13;;
63350;SDS011;74263;51.058;17.040;2024-03-02T14:59:12;49.43;;;26.50;;
63350;SDS011;74263;51.058;17.040;2024-03-02T15:04:14;39.97;;;25.60;;
63350;SDS011;74263;51.058;17.040;2024-03-02T15:09:18;40.40;;;24.65;;
63350;SDS011;74263;51.058;17.040;2024-03-02T15:14:20;39.53;;;23.48;;
63350;SDS011;74263;51.058;17.040;2024-03-02T15:19:22;44.53;;;24.23;;
63350;SDS011;74263;51.058;17.040;2024-03-02T15:24:24;40.17;;;25.50;;
63350;SDS011;74263;51.058;17.040;2024-03-02T15:29:25;45.35;;;27.63;;
63350;SDS011;74263;51.058;17.040;2024-03-02T15:34:28;47.25;;;26.73;;
63350;SDS011;74263;51.058;17.040;2024-03-02T15:39:30;48.33;;;25.73;;
63350;SDS011;74263;51.058;17.040;2024-03-02T15:44:32;42.57;;;23.97;;
63350;SDS011;74263;51.058;17.040;2024-03-02T15:49:34;46.35;;;27.88;;
63350;SDS011;74263;51.058;17.040;2024-03-02T15:54:35;45.08;;;27.40;;
63350;SDS011;74263;51.058;17.040;2024-03-02T15:59:37;51.27;;;27.33;;
63350;SDS011;74263;51.058;17.040;2024-03-02T16:04:39;49.47;;;27.13;;
63350;SDS011;74263;51.058;17.040;2024-03-02T16:09:41;42.20;;;23.10;;
63350;SDS011;74263;51.058;17.040;2024-03-02T16:14:43;54.15;;;27.50;;
63350;SDS011;74263;51.058;17.040;2024-03-02T16:19:44;48.72;;;26.92;;
63350;SDS011;74263;51.058;17.040;2024-03-02T16:24:47;48.78;;;26.70;;
63350;SDS011;74263;51.058;17.040;2024-03-02T16:29:49;51.15;;;28.83;;
63350;SDS011;74263;51.058;17.040;2024-03-02T16:34:51;52.83;;;28.95;;
63350;SDS011;74263;51.058;17.040;2024-03-02T16:39:53;50.55;;;29.88;;
63350;SDS011;74263;51.058;17.040;2024-03-02T16:44:55;50.72;;;29.33;;
63350;SDS011;74263;51.058;17.040;2024-03-02T16:49:57;57.38;;;31.88;;
63350;SDS011;74263;51.058;17.040;2024-03-02T16:55:01;63.63;;;33.60;;
63350;SDS011;74263;51.058;17.040;2024-03-02T17:00:06;58.05;;;33.60;;
63350;SDS011;74263;51.058;17.040;2024-03-02T17:05:07;58.87;;;34.53;;
63350;SDS011;74263;51.058;17.040;2024-03-02T17:10:09;61.47;;;33.40;;
63350;SDS011;74263;51.058;17.040;2024-03-02T17:15:11;63.03;;;33.97;;
63350;SDS011;74263;51.058;17.040;2024-03-02T17:20:13;70.33;;;35.87;;
63350;SDS011;74263;51.058;17.040;2024-03-02T17:25:15;60.75;;;35.13;;
63350;SDS011;74263;51.058;17.040;2024-03-02T17:30:17;58.22;;;34.63;;
63350;SDS011;74263;51.058;17.040;2024-03-02T17:35:19;66.30;;;36.67;;
63350;SDS011;74263;51.058;17.040;2024-03-02T17:40:20;65.57;;;36.47;;
63350;SDS011;74263;51.058;17.040;2024-03-02T17:45:24;68.95;;;37.72;;
63350;SDS011;74263;51.058;17.040;2024-03-02T17:50:26;64.38;;;34.58;;
63350;SDS011;74263;51.058;17.040;2024-03-02T17:55:28;64.05;;;35.17;;
63350;SDS011;74263;51.058;17.040;2024-03-02T18:00:30;62.47;;;35.27;;
63350;SDS011;74263;51.058;17.040;2024-03-02T18:05:31;62.40;;;34.15;;
63350;SDS011;74263;51.058;17.040;2024-03-02T18:10:33;61.90;;;33.80;;
63350;SDS011;74263;51.058;17.040;2024-03-02T18:15:35;60.73;;;34.10;;
63350;SDS011;74263;51.058;17.040;2024-03-02T18:20:37;56.03;;;33.07;;
63350;SDS011;74263;51.058;17.040;2024-03-02T18:25:39;53.73;;;30.80;;
63350;SDS011;74263;51.058;17.040;2024-03-02T18:30:41;48.85;;;29.05;;
63350;SDS011;74263;51.058;17.040;2024-03-02T18:35:43;37.13;;;24.50;;
63350;SDS011;74263;51.058;17.040;2024-03-02T18:40:44;37.17;;;22.70;;
63350;SDS011;74263;51.058;17.040;2024-03-02T18:45:46;37.42;;;22.80;;
63350;SDS011;74263;51.058;17.040;2024-03-02T18:50:48;40.65;;;23.55;;
63350;SDS011;74263;51.058;17.040;2024-03-02T18:55:49;34.15;;;20.45;;
63350;SDS011;74263;51.058;17.040;2024-03-02T19:00:51;34.67;;;21.13;;
63350;SDS011;74263;51.058;17.040;2024-03-02T19:05:53;36.50;;;20.47;;
63350;SDS011;74263;51.058;17.040;2024-03-02T19:10:55;34.33;;;20.23;;
63350;SDS011;74263;51.058;17.040;2024-03-02T19:15:56;37.55;;;20.45;;
63350;SDS011;74263;51.058;17.040;2024-03-02T19:20:58;33.50;;;20.15;;
63350;SDS011;74263;51.058;17.040;2024-03-02T19:26:00;35.38;;;21.65;;
63350;SDS011;74263;51.058;17.040;2024-03-02T19:31:01;34.70;;;20.40;;
63350;SDS011;74263;51.058;17.040;2024-03-02T19:36:04;34.27;;;18.90;;
63350;SDS011;74263;51.058;17.040;2024-03-02T19:41:06;32.40;;;20.23;;
63350;SDS011;74263;51.058;17.040;2024-03-02T19:46:07;35.78;;;19.30;;
63350;SDS011;74263;51.058;17.040;2024-03-02T19:51:09;32.17;;;18.45;;
63350;SDS011;74263;51.058;17.040;2024-03-02T19:56:15;26.67;;;16.17;;
63350;SDS011;74263;51.058;17.040;2024-03-02T20:01:17;33.03;;;18.58;;
63350;SDS011;74263;51.058;17.040;2024-03-02T20:06:19;32.90;;;18.87;;
63350;SDS011;74263;51.058;17.040;2024-03-02T20:11:22;30.67;;;17.80;;
63350;SDS011;74263;51.058;17.040;2024-03-02T20:16:24;32.90;;;17.73;;
63350;SDS011;74263;51.058;17.040;2024-03-02T20:21:26;27.60;;;17.42;;
63350;SDS011;74263;51.058;17.040;2024-03-02T20:26:28;33.83;;;17.70;;
63350;SDS011;74263;51.058;17.040;2024-03-02T20:31:31;31.80;;;17.70;;
63350;SDS011;74263;51.058;17.040;2024-03-02T20:36:32;25.45;;;16.05;;
63350;SDS011;74263;51.058;17.040;2024-03-02T20:41:35;24.67;;;15.85;;
63350;SDS011;74263;51.058;17.040;2024-03-02T20:46:36;31.02;;;15.48;;
63350;SDS011;74263;51.058;17.040;2024-03-02T20:51:38;25.17;;;14.67;;
63350;SDS011;74263;51.058;17.040;2024-03-02T20:56:40;26.80;;;15.77;;
63350;SDS011;74263;51.058;17.040;2024-03-02T21:01:46;26.17;;;15.67;;
63350;SDS011;74263;51.058;17.040;2024-03-02T21:06:49;30.95;;;16.55;;
63350;SDS011;74263;51.058;17.040;2024-03-02T21:11:52;31.10;;;16.98;;
63350;SDS011;74263;51.058;17.040;2024-03-02T21:16:54;31.58;;;17.52;;
63350;SDS011;74263;51.058;17.040;2024-03-02T21:21:56;30.73;;;17.20;;
63350;SDS011;74263;51.058;17.040;2024-03-02T21:26:59;25.83;;;15.35;;
63350;SDS011;74263;51.058;17.040;2024-03-02T21:32:00;28.80;;;18.20;;
63350;SDS011;74263;51.058;17.040;2024-03-02T21:37:02;32.70;;;17.27;;
63350;SDS011;74263;51.058;17.040;2024-03-02T21:42:05;32.53;;;18.58;;
63350;SDS011;74263;51.058;17.040;2024-03-02T21:47:08;30.27;;;18.58;;
63350;SDS011;74263;51.058;17.040;2024-03-02T21:52:10;33.35;;;19.02;;
63350;SDS011;74263;51.058;17.040;2024-03-02T21:57:11;37.13;;;21.25;;
63350;SDS011;74263;51.058;17.040;2024-03-02T22:02:13;37.92;;;20.55;;
63350;SDS011;74263;51.058;17.040;2024-03-02T22:07:15;33.75;;;20.35;;
63350;SDS011;74263;51.058;17.040;2024-03-02T22:12:18;36.35;;;21.92;;
63350;SDS011;74263;51.058;17.040;2024-03-02T22:17:19;38.72;;;21.38;;
63350;SDS011;74263;51.058;17.040;2024-03-02T22:22:21;40.63;;;22.73;;
63350;SDS011;74263;51.058;17.040;2024-03-02T22:27:23;37.80;;;22.33;;
63350;SDS011;74263;51.058;17.040;2024-03-02T22:32:25;36.40;;;22.27;;
63350;SDS011;74263;51.058;17.040;2024-03-02T22:37:26;49.30;;;25.88;;
63350;SDS011;74263;51.058;17.040;2024-03-02T22:42:28;44.57;;;25.20;;
63350;SDS011;74263;51.058;17.040;2024-03-02T22:47:33;43.83;;;23.58;;
63350;SDS011;74263;51.058;17.040;2024-03-02T22:52:35;49.67;;;25.90;;
63350;SDS011;74263;51.058;17.040;2024-03-02T22:57:36;44.17;;;25.23;;
63350;SDS011;74263;51.058;17.040;2024-03-02T23:02:38;45.72;;;24.90;;
63350;SDS011;74263;51.058;17.040;2024-03-02T23:07:40;46.53;;;26.92;;
63350;SDS011;74263;51.058;17.040;2024-03-02T23:12:41;50.42;;;27.00;;
63350;SDS011;74263;51.058;17.040;2024-03-02T23:17:43;52.53;;;27.00;;
63350;SDS011;74263;51.058;17.040;2024-03-02T23:22:45;50.23;;;28.03;;
63350;SDS011;74263;51.058;17.040;2024-03-02T23:27:47;48.85;;;28.15;;
63350;SDS011;74263;51.058;17.040;2024-03-02T23:32:49;54.55;;;30.67;;
63350;SDS011;74263;51.058;17.040;2024-03-02T23:37:50;59.03;;;30.52;;
63350;SDS011;74263;51.058;17.040;2024-03-02T23:42:52;56.13;;;31.47;;
63350;SDS011;74263;51.058;17.040;2024-03-02T23:47:54;55.38;;;31.05;;
63350;SDS011;74263;51.058;17.040;2024-03-02T23:52:56;56.70;;;32.65;;
63350;SDS011;74263;51.058;17.040;2024-03-02T23:57:58;60.67;;;33.33;;
